Time;durP1;ratioP1;P1;durP2;ratioP2;P2;SDS_P1;SDS_P2;PMS_P1;PMS_P2;Temp;Humidity;BMP_temperature;BMP_pressure;BME280_temperature;BME280_humidity;BME280_pressure;Samples;Min_cycle;Max_cycle;Signal;HPM_P1;HPM_P2
2023/06/08 00:01:15;;;;;;;5.40;3.35;;;;;;;;;;6370153;22;20014;-71
2023/06/08 00:03:43;;;;;;;7.50;3.60;;;;;;;;;;6370167;22;20382;-71
2023/06/08 00:06:13;;;;;;;6.28;3.50;;;;;;;;;;6369941;22;20106;-71
2023/06/08 00:08:41;;;;;;;7.75;3.58;;;;;;;;;;6342727;22;20018;-71
2023/06/08 00:11:08;;;;;;;5.80;3.42;;;;;;;;;;6370197;22;20014;-71
2023/06/08 00:13:36;;;;;;;5.35;3.50;;;;;;;;;;6370086;22;20034;-71
2023/06/08 00:16:04;;;;;;;5.32;3.33;;;;;;;;;;6370131;22;20014;-71
2023/06/08 00:18:31;;;;;;;6.22;3.72;;;;;;;;;;6342710;22;20025;-70
2023/06/08 00:21:00;;;;;;;6.43;3.05;;;;;;;;;;6370152;22;20382;-71
2023/06/08 00:23:28;;;;;;;5.55;3.50;;;;;;;;;;6370065;22;20431;-71
2023/06/08 00:25:55;;;;;;;5.38;3.50;;;;;;;;;;6369812;22;20014;-70
2023/06/08 00:28:23;;;;;;;4.88;3.50;;;;;;;;;;6342177;22;20025;-71
2023/06/08 00:30:51;;;;;;;7.38;4.00;;;;;;;;;;6342587;22;20014;-71
2023/06/08 00:33:18;;;;;;;5.38;3.50;;;;;;;;;;6370234;22;20085;-71
2023/06/08 00:35:46;;;;;;;5.43;3.67;;;;;;;;;;6342076;22;20101;-71
2023/06/08 00:38:13;;;;;;;6.47;3.65;;;;;;;;;;6342002;22;20014;-71
2023/06/08 00:40:44;;;;;;;4.90;3.47;;;;;;;;;;6342054;22;20018;-71
2023/06/08 00:43:12;;;;;;;6.30;3.55;;;;;;;;;;6369666;22;20014;-71
2023/06/08 00:45:40;;;;;;;8.23;3.83;;;;;;;;;;6341968;22;20018;-71
2023/06/08 00:48:08;;;;;;;5.68;3.47;;;;;;;;;;6369727;22;20093;-70
2023/06/08 00:50:36;;;;;;;5.28;3.53;;;;;;;;;;6342014;22;20038;-71
2023/06/08 00:53:04;;;;;;;5.38;4.07;;;;;;;;;;6369834;22;20019;-71
2023/06/08 00:55:33;;;;;;;6.32;3.90;;;;;;;;;;6369534;22;20015;-71
2023/06/08 00:58:01;;;;;;;6.18;3.53;;;;;;;;;;6341981;22;20014;-70
2023/06/08 01:00:29;;;;;;;6.25;3.92;;;;;;;;;;6341813;22;20029;-71
2023/06/08 01:02:58;;;;;;;8.93;4.05;;;;;;;;;;6341775;22;20019;-72
2023/06/08 01:05:26;;;;;;;7.97;4.13;;;;;;;;;;6341978;22;20018;-71
2023/06/08 01:07:57;;;;;;;5.93;4.30;;;;;;;;;;6341574;22;20089;-71
2023/06/08 01:10:34;;;;;;;4.38;3.50;;;;;;;;;;6341893;22;20018;-70
2023/06/08 01:13:25;;;;;;;6.22;4.00;;;;;;;;;;6369673;22;21036;-71
2023/06/08 01:15:55;;;;;;;6.18;3.80;;;;;;;;;;6350695;22;20014;-71
2023/06/08 01:18:23;;;;;;;6.53;3.90;;;;;;;;;;6369720;22;20041;-71
2023/06/08 01:20:54;;;;;;;5.20;3.80;;;;;;;;;;6369651;22;20336;-71
2023/06/08 01:23:44;;;;;;;8.75;3.80;;;;;;;;;;6341798;22;20071;-71
2023/06/08 01:26:15;;;;;;;6.15;3.67;;;;;;;;;;6369843;22;20037;-71
2023/06/08 01:28:48;;;;;;;5.80;3.63;;;;;;;;;;6369653;22;20021;-72
2023/06/08 01:31:15;;;;;;;6.20;4.20;;;;;;;;;;6369606;22;20015;-71
2023/06/08 01:33:43;;;;;;;7.28;3.92;;;;;;;;;;6341568;22;20455;-71
2023/06/08 01:36:12;;;;;;;7.03;3.78;;;;;;;;;;6341637;22;20071;-71
2023/06/08 01:38:48;;;;;;;7.20;4.20;;;;;;;;;;6341815;22;20045;-70
2023/06/08 01:41:18;;;;;;;6.68;3.88;;;;;;;;;;6341537;22;20053;-70
2023/06/08 01:43:48;;;;;;;6.28;3.95;;;;;;;;;;6341592;22;20098;-70
2023/06/08 01:46:17;;;;;;;6.28;3.97;;;;;;;;;;6369419;22;20014;-70
2023/06/08 01:48:46;;;;;;;10.70;3.97;;;;;;;;;;6342079;22;20436;-71
2023/06/08 01:51:14;;;;;;;7.13;4.35;;;;;;;;;;6341652;22;20101;-71
2023/06/08 01:53:42;;;;;;;10.07;4.40;;;;;;;;;;6341464;22;20106;-70
2023/06/08 01:56:09;;;;;;;8.40;4.38;;;;;;;;;;6341577;22;20014;-70
2023/06/08 01:58:37;;;;;;;6.80;4.50;;;;;;;;;;6341451;22;20097;-71
2023/06/08 02:01:05;;;;;;;8.18;4.28;;;;;;;;;;6315686;22;20022;-71
2023/06/08 02:03:32;;;;;;;12.13;7.68;;;;;;;;;;6369199;22;20042;-70
2023/06/08 02:06:00;;;;;;;10.57;4.90;;;;;;;;;;6341552;22;20042;-71
2023/06/08 02:08:27;;;;;;;10.57;4.82;;;;;;;;;;6369172;22;20021;-71
2023/06/08 02:10:55;;;;;;;9.50;5.68;;;;;;;;;;6341624;22;20075;-71
2023/06/08 02:13:22;;;;;;;7.82;4.68;;;;;;;;;;6341405;22;20087;-71
2023/06/08 02:15:51;;;;;;;7.80;5.03;;;;;;;;;;6341619;22;20101;-71
2023/06/08 02:18:19;;;;;;;7.88;4.60;;;;;;;;;;6341456;22;20097;-71
2023/06/08 02:20:46;;;;;;;9.77;5.00;;;;;;;;;;6341361;22;20018;-71
2023/06/08 02:23:14;;;;;;;8.82;5.10;;;;;;;;;;6341419;22;20057;-71
2023/06/08 02:25:41;;;;;;;7.35;4.55;;;;;;;;;;6341302;22;20381;-70
2023/06/08 02:28:09;;;;;;;6.00;4.70;;;;;;;;;;6342164;22;20366;-71
2023/06/08 02:30:37;;;;;;;8.73;4.70;;;;;;;;;;6343164;22;20063;-71
2023/06/08 02:33:04;;;;;;;7.43;4.68;;;;;;;;;;6371187;22;20339;-70
2023/06/08 02:35:32;;;;;;;6.97;4.63;;;;;;;;;;6343165;22;20114;-71
2023/06/08 02:38:00;;;;;;;8.98;4.90;;;;;;;;;;6343020;22;20025;-71
2023/06/08 02:40:29;;;;;;;8.48;4.75;;;;;;;;;;6343133;22;20018;-70
2023/06/08 02:42:57;;;;;;;7.00;4.25;;;;;;;;;;6342834;22;20022;-71
2023/06/08 02:45:26;;;;;;;7.47;4.30;;;;;;;;;;6343013;22;20018;-71
2023/06/08 02:47:57;;;;;;;6.35;4.20;;;;;;;;;;6343208;22;20444;-71
2023/06/08 02:50:25;;;;;;;8.02;5.00;;;;;;;;;;6343064;22;20022;-71
2023/06/08 02:52:52;;;;;;;7.70;4.60;;;;;;;;;;6370773;22;20021;-71
2023/06/08 02:55:20;;;;;;;7.03;4.70;;;;;;;;;;6343357;22;20336;-71
2023/06/08 02:57:49;;;;;;;8.82;4.57;;;;;;;;;;6342927;22;20025;-71
2023/06/08 03:00:20;;;;;;;6.75;4.63;;;;;;;;;;6342991;22;20014;-71
2023/06/08 03:03:01;;;;;;;7.30;5.10;;;;;;;;;;6342772;22;20036;-71
2023/06/08 03:05:34;;;;;;;6.82;4.65;;;;;;;;;;6342826;22;20020;-71
2023/06/08 03:08:02;;;;;;;7.55;4.45;;;;;;;;;;6342762;22;20025;-70
2023/06/08 03:10:30;;;;;;;8.25;4.90;;;;;;;;;;6317033;22;20340;-71
2023/06/08 03:12:58;;;;;;;8.30;4.82;;;;;;;;;;6342797;22;20025;-71
2023/06/08 03:15:30;;;;;;;5.68;4.80;;;;;;;;;;6342790;22;20020;-70
2023/06/08 03:18:01;;;;;;;8.80;4.60;;;;;;;;;;6371047;22;20023;-70
2023/06/08 03:20:30;;;;;;;9.93;4.70;;;;;;;;;;6342607;22;20045;-71
2023/06/08 03:23:06;;;;;;;6.35;4.43;;;;;;;;;;6342643;22;20318;-71
2023/06/08 03:25:36;;;;;;;8.02;4.70;;;;;;;;;;6342573;22;20022;-71
2023/06/08 03:28:05;;;;;;;8.07;4.53;;;;;;;;;;6342258;22;20022;-71
2023/06/08 03:30:33;;;;;;;10.60;4.85;;;;;;;;;;6342545;22;20015;-71
2023/06/08 03:33:05;;;;;;;7.20;4.88;;;;;;;;;;6342396;22;20024;-71
2023/06/08 03:35:44;;;;;;;7.25;4.50;;;;;;;;;;6370463;22;20014;-71
2023/06/08 03:38:24;;;;;;;6.05;4.63;;;;;;;;;;6342327;22;20444;-71
2023/06/08 03:40:56;;;;;;;7.38;4.80;;;;;;;;;;6342369;22;20467;-71
2023/06/08 03:43:25;;;;;;;8.43;5.00;;;;;;;;;;6342534;22;20022;-71
2023/06/08 03:45:54;;;;;;;6.25;4.68;;;;;;;;;;6342542;22;20097;-70
2023/06/08 03:48:23;;;;;;;9.30;4.50;;;;;;;;;;6342418;22;20040;-70
2023/06/08 03:50:51;;;;;;;10.25;5.10;;;;;;;;;;6342459;22;20022;-70
2023/06/08 03:53:21;;;;;;;9.68;4.93;;;;;;;;;;6342098;22;20030;-69
2023/06/08 03:55:48;;;;;;;7.57;4.57;;;;;;;;;;6341689;22;20038;-69
2023/06/08 03:58:16;;;;;;;10.45;4.97;;;;;;;;;;6342115;22;20026;-69
2023/06/08 04:00:45;;;;;;;8.57;4.40;;;;;;;;;;6342191;22;20022;-70
2023/06/08 04:03:14;;;;;;;7.32;4.50;;;;;;;;;;6341944;22;20022;-68
2023/06/08 04:05:42;;;;;;;6.97;4.78;;;;;;;;;;6370060;22;20038;-69
2023/06/08 04:08:09;;;;;;;8.48;5.10;;;;;;;;;;6342201;22;20022;-69
2023/06/08 04:10:37;;;;;;;9.43;5.05;;;;;;;;;;6342216;22;20548;-69
2023/06/08 04:13:05;;;;;;;6.40;5.05;;;;;;;;;;6342370;22;20018;-69
2023/06/08 04:15:35;;;;;;;9.60;5.60;;;;;;;;;;6342162;22;20015;-68
2023/06/08 04:18:03;;;;;;;7.05;4.60;;;;;;;;;;6341810;22;20508;-68
2023/06/08 04:20:31;;;;;;;8.85;4.55;;;;;;;;;;6342309;22;20014;-69
2023/06/08 04:22:59;;;;;;;6.35;4.68;;;;;;;;;;6341934;22;20022;-68
2023/06/08 04:25:27;;;;;;;13.38;4.45;;;;;;;;;;6341879;22;20106;-69
2023/06/08 04:27:56;;;;;;;12.27;4.63;;;;;;;;;;6341509;22;20101;-70
2023/06/08 04:30:23;;;;;;;12.70;4.38;;;;;;;;;;6342087;22;20068;-69
2023/06/08 04:32:51;;;;;;;8.25;4.10;;;;;;;;;;6369929;22;20059;-68
2023/06/08 04:35:19;;;;;;;6.38;3.90;;;;;;;;;;6341523;22;20348;-69
2023/06/08 04:37:50;;;;;;;7.88;4.95;;;;;;;;;;6341900;22;20343;-69
2023/06/08 04:40:19;;;;;;;7.65;4.30;;;;;;;;;;6341860;22;20093;-70
2023/06/08 04:42:48;;;;;;;8.30;4.45;;;;;;;;;;6316768;22;20022;-69
2023/06/08 04:45:18;;;;;;;9.13;4.57;;;;;;;;;;6341838;22;20564;-68
2023/06/08 04:47:47;;;;;;;8.77;3.90;;;;;;;;;;6341656;22;20018;-68
2023/06/08 04:50:14;;;;;;;10.68;4.20;;;;;;;;;;6340752;22;20018;-69
2023/06/08 04:52:45;;;;;;;8.25;4.20;;;;;;;;;;6341368;22;20022;-69
2023/06/08 04:55:16;;;;;;;7.55;4.22;;;;;;;;;;6369414;22;20010;-69
2023/06/08 04:57:43;;;;;;;6.40;4.18;;;;;;;;;;6341591;22;20591;-69
2023/06/08 05:00:12;;;;;;;6.85;4.28;;;;;;;;;;6315950;22;20021;-69
2023/06/08 05:02:40;;;;;;;6.97;3.67;;;;;;;;;;6341470;22;20105;-69
2023/06/08 05:05:08;;;;;;;7.25;4.07;;;;;;;;;;6369452;22;20344;-70
2023/06/08 05:07:35;;;;;;;5.30;3.13;;;;;;;;;;6315762;22;20022;-70
2023/06/08 05:10:04;;;;;;;5.07;3.13;;;;;;;;;;6369545;22;20444;-70
2023/06/08 05:12:32;;;;;;;6.15;3.03;;;;;;;;;;6369603;22;20014;-69
2023/06/08 05:15:02;;;;;;;6.22;3.15;;;;;;;;;;6369416;22;20314;-70
2023/06/08 05:17:30;;;;;;;6.68;3.15;;;;;;;;;;6369534;22;20014;-70
2023/06/08 05:19:57;;;;;;;8.85;3.88;;;;;;;;;;6369529;22;20010;-72
2023/06/08 05:22:25;;;;;;;9.07;3.35;;;;;;;;;;6369583;22;20014;-71
2023/06/08 05:24:52;;;;;;;9.43;3.15;;;;;;;;;;6369460;22;20060;-71
2023/06/08 05:27:19;;;;;;;7.22;2.78;;;;;;;;;;6369368;22;20014;-72
2023/06/08 05:29:47;;;;;;;6.63;2.80;;;;;;;;;;6369100;22;20040;-71
2023/06/08 05:32:14;;;;;;;8.52;3.20;;;;;;;;;;6369612;22;20011;-72
2023/06/08 05:34:42;;;;;;;3.42;2.40;;;;;;;;;;6369577;22;20089;-70
2023/06/08 05:37:10;;;;;;;6.80;2.65;;;;;;;;;;6342001;22;20085;-71
2023/06/08 05:39:37;;;;;;;7.15;2.90;;;;;;;;;;6369433;22;20019;-71
2023/06/08 05:42:06;;;;;;;6.03;2.65;;;;;;;;;;6369547;22;20010;-71
2023/06/08 05:44:34;;;;;;;5.75;2.78;;;;;;;;;;6369754;22;20022;-71
2023/06/08 05:47:02;;;;;;;6.30;3.15;;;;;;;;;;6369495;22;20014;-71
2023/06/08 05:49:30;;;;;;;6.75;2.53;;;;;;;;;;6369252;22;20056;-71
2023/06/08 05:51:57;;;;;;;4.28;2.65;;;;;;;;;;6369422;22;20367;-71
2023/06/08 05:54:25;;;;;;;6.28;2.50;;;;;;;;;;6341573;22;20014;-72
2023/06/08 05:56:52;;;;;;;6.85;2.92;;;;;;;;;;6369164;22;20604;-75
2023/06/08 05:59:20;;;;;;;7.38;2.55;;;;;;;;;;6369575;22;20391;-74
2023/06/08 06:01:49;;;;;;;6.03;2.90;;;;;;;;;;6342069;22;20514;-71
2023/06/08 06:04:16;;;;;;;5.85;2.50;;;;;;;;;;6371512;22;20390;-72
2023/06/08 06:07:02;;;;;;;2.88;2.30;;;;;;;;;;6371286;22;20018;-76
2023/06/08 06:09:29;;;;;;;4.43;2.50;;;;;;;;;;6371287;22;20021;-73
2023/06/08 06:11:57;;;;;;;6.22;2.75;;;;;;;;;;6371390;22;20063;-72
2023/06/08 06:14:24;;;;;;;5.53;2.75;;;;;;;;;;6371253;22;20022;-74
2023/06/08 06:16:52;;;;;;;5.55;3.03;;;;;;;;;;6343903;22;20018;-76
2023/06/08 06:19:37;;;;;;;3.70;2.60;;;;;;;;;;6371540;22;20010;-75
2023/06/08 06:22:15;;;;;;;6.22;2.70;;;;;;;;;;6344183;22;20130;-76
2023/06/08 06:24:44;;;;;;;6.00;2.55;;;;;;;;;;6371348;22;20340;-76
2023/06/08 06:27:12;;;;;;;5.22;2.63;;;;;;;;;;6343703;22;20485;-75
2023/06/08 06:29:39;;;;;;;8.07;2.53;;;;;;;;;;6343505;22;20018;-71
2023/06/08 06:32:08;;;;;;;6.20;2.70;;;;;;;;;;6371318;22;20021;-76
2023/06/08 06:34:38;;;;;;;7.60;2.88;;;;;;;;;;6318401;22;20436;-72
2023/06/08 06:37:06;;;;;;;5.07;2.60;;;;;;;;;;6371270;22;20015;-75
2023/06/08 06:39:34;;;;;;;4.97;2.70;;;;;;;;;;6343719;22;20097;-74
2023/06/08 06:42:02;;;;;;;5.55;2.55;;;;;;;;;;6371654;22;20384;-74
2023/06/08 06:44:40;;;;;;;6.35;3.03;;;;;;;;;;6343467;22;20022;-75
2023/06/08 06:47:10;;;;;;;6.93;3.70;;;;;;;;;;6371544;22;20014;-76
2023/06/08 06:49:38;;;;;;;4.47;2.90;;;;;;;;;;6371018;22;20023;-76
2023/06/08 06:52:06;;;;;;;5.60;2.75;;;;;;;;;;6317842;22;20055;-77
2023/06/08 06:54:34;;;;;;;8.65;2.75;;;;;;;;;;6317603;22;20022;-73
2023/06/08 06:57:01;;;;;;;5.03;2.80;;;;;;;;;;6371108;22;20010;-77
2023/06/08 06:59:29;;;;;;;4.80;3.00;;;;;;;;;;6343575;22;20018;-74
2023/06/08 07:01:56;;;;;;;9.00;3.30;;;;;;;;;;6371151;22;20019;-75
2023/06/08 07:04:25;;;;;;;6.97;2.53;;;;;;;;;;6371661;22;20428;-75
2023/06/08 07:06:53;;;;;;;6.72;2.92;;;;;;;;;;6343753;22;20022;-75
2023/06/08 07:09:21;;;;;;;4.72;3.00;;;;;;;;;;6371548;22;20325;-76
2023/06/08 07:11:49;;;;;;;6.45;3.10;;;;;;;;;;6371578;22;20017;-74
2023/06/08 07:14:32;;;;;;;6.75;2.90;;;;;;;;;;6346387;22;20018;-75
2023/06/08 07:17:00;;;;;;;5.03;2.80;;;;;;;;;;6344104;22;20011;-76
2023/06/08 07:19:27;;;;;;;5.28;3.03;;;;;;;;;;6318183;22;20021;-73
2023/06/08 07:21:55;;;;;;;8.25;3.50;;;;;;;;;;6343170;22;20436;-76
2023/06/08 07:24:28;;;;;;;5.85;3.10;;;;;;;;;;6342993;22;20056;-74
2023/06/08 07:27:16;;;;;;;4.45;2.92;;;;;;;;;;6371340;22;20344;-76
2023/06/08 07:29:43;;;;;;;4.65;2.80;;;;;;;;;;6343189;22;20029;-75
2023/06/08 07:32:11;;;;;;;6.32;3.50;;;;;;;;;;6370882;22;20014;-76
2023/06/08 07:34:40;;;;;;;4.45;2.95;;;;;;;;;;6343218;22;20014;-76
2023/06/08 07:37:08;;;;;;;3.88;2.70;;;;;;;;;;6343171;22;20010;-71
2023/06/08 07:39:35;;;;;;;12.25;3.65;;;;;;;;;;6371243;22;20014;-76
2023/06/08 07:42:03;;;;;;;9.32;3.28;;;;;;;;;;6371222;22;20064;-76
2023/06/08 07:44:31;;;;;;;4.65;2.85;;;;;;;;;;6370841;22;20491;-74
2023/06/08 07:47:00;;;;;;;5.05;3.22;;;;;;;;;;6342943;22;20021;-73
2023/06/08 07:49:29;;;;;;;4.65;3.20;;;;;;;;;;6342903;22;20042;-73
2023/06/08 07:51:57;;;;;;;4.25;2.85;;;;;;;;;;6343086;22;20458;-75
2023/06/08 07:54:25;;;;;;;5.47;2.70;;;;;;;;;;6343091;22;20067;-73
2023/06/08 07:56:53;;;;;;;3.80;2.85;;;;;;;;;;6342856;22;20374;-75
2023/06/08 07:59:20;;;;;;;6.78;2.90;;;;;;;;;;6370426;22;20075;-75
2023/06/08 08:01:48;;;;;;;5.53;3.10;;;;;;;;;;6317131;22;20060;-73
2023/06/08 08:04:15;;;;;;;6.63;3.10;;;;;;;;;;6370474;22;20093;-73
2023/06/08 08:06:43;;;;;;;4.53;3.00;;;;;;;;;;6370366;22;20018;-74
2023/06/08 08:09:11;;;;;;;4.75;2.90;;;;;;;;;;6342896;22;20405;-71
2023/06/08 08:11:39;;;;;;;4.72;2.88;;;;;;;;;;6370558;22;20017;-74
2023/06/08 08:14:09;;;;;;;7.55;3.60;;;;;;;;;;6342953;22;20512;-74
2023/06/08 08:16:38;;;;;;;4.38;2.85;;;;;;;;;;6342918;22;20014;-74
2023/06/08 08:19:05;;;;;;;3.33;2.60;;;;;;;;;;6370274;22;20022;-74
2023/06/08 08:21:34;;;;;;;4.82;2.88;;;;;;;;;;6316921;22;20034;-75
2023/06/08 08:24:01;;;;;;;3.28;2.88;;;;;;;;;;6342737;22;20014;-73
2023/06/08 08:26:29;;;;;;;5.32;2.75;;;;;;;;;;6370326;22;20010;-74
2023/06/08 08:28:58;;;;;;;3.97;2.55;;;;;;;;;;6370421;22;20022;-76
2023/06/08 08:31:26;;;;;;;5.43;3.22;;;;;;;;;;6370415;22;20019;-75
2023/06/08 08:33:53;;;;;;;5.28;2.40;;;;;;;;;;6370660;22;20014;-76
2023/06/08 08:36:21;;;;;;;2.90;2.58;;;;;;;;;;6369997;22;20010;-76
2023/06/08 08:38:49;;;;;;;5.93;2.90;;;;;;;;;;6370253;22;20007;-76
2023/06/08 08:41:20;;;;;;;4.28;2.55;;;;;;;;;;6342370;22;20501;-75
2023/06/08 08:43:51;;;;;;;5.90;2.70;;;;;;;;;;6369855;22;20011;-76
2023/06/08 08:46:21;;;;;;;5.95;2.90;;;;;;;;;;6370160;22;20026;-76
2023/06/08 08:48:51;;;;;;;32.42;4.00;;;;;;;;;;6342215;22;20444;-72
2023/06/08 08:51:21;;;;;;;4.95;2.47;;;;;;;;;;6369969;22;20022;-77
2023/06/08 08:53:55;;;;;;;4.30;2.40;;;;;;;;;;6370043;22;20014;-74
2023/06/08 08:56:25;;;;;;;3.78;2.80;;;;;;;;;;6370256;22;20374;-74
2023/06/08 08:58:54;;;;;;;2.85;2.50;;;;;;;;;;6316532;22;20022;-76
2023/06/08 09:01:23;;;;;;;5.80;4.38;;;;;;;;;;6342331;22;20019;-75
2023/06/08 09:03:52;;;;;;;6.78;5.05;;;;;;;;;;6370048;22;20347;-75
2023/06/08 09:06:21;;;;;;;5.10;2.65;;;;;;;;;;6342457;22;20026;-74
2023/06/08 09:08:49;;;;;;;3.55;2.53;;;;;;;;;;6369999;22;20082;-76
2023/06/08 09:11:16;;;;;;;5.97;3.10;;;;;;;;;;6369914;22;20021;-75
2023/06/08 09:13:45;;;;;;;4.32;3.08;;;;;;;;;;6342454;22;20099;-77
2023/06/08 09:16:14;;;;;;;6.40;3.58;;;;;;;;;;6369760;22;20116;-74
2023/06/08 09:18:43;;;;;;;4.35;2.60;;;;;;;;;;6316471;22;20518;-75
2023/06/08 09:21:24;;;;;;;11.63;3.60;;;;;;;;;;6370457;22;20102;-74
2023/06/08 09:24:11;;;;;;;5.78;2.85;;;;;;;;;;6370391;22;20014;-76
2023/06/08 09:26:45;;;;;;;6.07;4.07;;;;;;;;;;6369930;22;20045;-76
2023/06/08 09:29:13;;;;;;;;;;;;;;;;;;6317382;22;20028;-75
2023/06/08 09:31:53;;;;;;;4.70;2.58;;;;;;;;;;6370047;22;19921;-75
2023/06/08 09:34:22;;;;;;;4.32;3.13;;;;;;;;;;6342745;22;20049;-75
2023/06/08 09:36:52;;;;;;;5.57;2.78;;;;;;;;;;6370564;22;20343;-78
2023/06/08 09:39:20;;;;;;;5.57;2.95;;;;;;;;;;6344869;22;20014;-73
2023/06/08 09:41:57;;;;;;;3.88;2.72;;;;;;;;;;6371960;22;20121;-71
2023/06/08 09:44:27;;;;;;;7.55;3.40;;;;;;;;;;6344658;22;20014;-75
2023/06/08 09:46:55;;;;;;;6.90;2.97;;;;;;;;;;6344823;22;20022;-76
2023/06/08 09:49:23;;;;;;;5.60;2.72;;;;;;;;;;6373472;22;20011;-76
2023/06/08 09:51:53;;;;;;;4.07;2.97;;;;;;;;;;6344567;22;20056;-75
2023/06/08 09:54:27;;;;;;;5.15;3.00;;;;;;;;;;6372197;22;20089;-75
2023/06/08 09:56:57;;;;;;;7.13;3.22;;;;;;;;;;6319353;22;20041;-75
2023/06/08 09:59:29;;;;;;;4.60;2.92;;;;;;;;;;6345486;22;20467;-75
2023/06/08 10:02:03;;;;;;;5.13;2.80;;;;;;;;;;6345202;22;20022;-76
2023/06/08 10:04:40;;;;;;;5.82;2.85;;;;;;;;;;6345100;22;20512;-75
2023/06/08 10:07:13;;;;;;;6.50;3.13;;;;;;;;;;6344739;22;20042;-73
2023/06/08 10:09:43;;;;;;;4.30;3.00;;;;;;;;;;6319077;22;20451;-73
2023/06/08 10:12:14;;;;;;;8.23;3.65;;;;;;;;;;6372461;22;20010;-76
2023/06/08 10:14:42;;;;;;;6.55;3.83;;;;;;;;;;6373060;22;20038;-77
2023/06/08 10:17:10;;;;;;;5.43;3.28;;;;;;;;;;6373142;22;20018;-77
2023/06/08 10:19:38;;;;;;;8.85;3.35;;;;;;;;;;6371664;22;20399;-74
2023/06/08 10:22:06;;;;;;;5.50;2.90;;;;;;;;;;6345394;22;20048;-75
2023/06/08 10:24:34;;;;;;;4.47;2.85;;;;;;;;;;6372286;22;20021;-74
2023/06/08 10:27:18;;;;;;;6.35;3.08;;;;;;;;;;6372505;22;20010;-78
2023/06/08 10:29:59;;;;;;;5.93;3.10;;;;;;;;;;6373338;22;20018;-74
2023/06/08 10:32:42;;;;;;;5.13;3.00;;;;;;;;;;6346450;22;20093;-74
2023/06/08 10:35:10;;;;;;;4.28;3.17;;;;;;;;;;6373518;22;20026;-75
2023/06/08 10:37:38;;;;;;;4.00;2.80;;;;;;;;;;6373642;22;20018;-75
2023/06/08 10:40:09;;;;;;;6.47;3.40;;;;;;;;;;6372809;22;20458;-77
2023/06/08 10:42:56;;;;;;;5.97;3.40;;;;;;;;;;6343907;22;20440;-74
2023/06/08 10:45:48;;;;;;;6.38;3.50;;;;;;;;;;6344110;22;20046;-75
2023/06/08 10:48:18;;;;;;;4.57;3.70;;;;;;;;;;6372150;22;20388;-75
2023/06/08 10:50:47;;;;;;;5.10;3.25;;;;;;;;;;6344044;22;20015;-76
2023/06/08 10:53:18;;;;;;;3.75;2.75;;;;;;;;;;6318345;22;20026;-74
2023/06/08 10:55:49;;;;;;;4.53;3.22;;;;;;;;;;6371339;22;20045;-76
2023/06/08 10:58:19;;;;;;;5.55;2.88;;;;;;;;;;6343921;22;20444;-75
2023/06/08 11:00:52;;;;;;;4.82;2.97;;;;;;;;;;6371194;22;20463;-77
2023/06/08 11:03:23;;;;;;;6.03;2.70;;;;;;;;;;6343273;22;20436;-75
2023/06/08 11:05:53;;;;;;;5.35;3.22;;;;;;;;;;6371051;22;20022;-74
2023/06/08 11:08:21;;;;;;;5.35;3.05;;;;;;;;;;6370929;22;20017;-74
2023/06/08 11:10:53;;;;;;;5.03;2.80;;;;;;;;;;6343980;22;20090;-76
2023/06/08 11:13:21;;;;;;;5.03;2.90;;;;;;;;;;6371085;22;20019;-76
2023/06/08 11:15:48;;;;;;;6.85;3.78;;;;;;;;;;6343769;22;20452;-77
2023/06/08 11:18:19;;;;;;;4.10;3.22;;;;;;;;;;6370795;22;20340;-75
2023/06/08 11:20:47;;;;;;;6.80;3.17;;;;;;;;;;6342669;22;20075;-76
2023/06/08 11:23:15;;;;;;;5.32;3.30;;;;;;;;;;6371139;22;20078;-76
2023/06/08 11:25:46;;;;;;;7.03;2.80;;;;;;;;;;6371038;22;20071;-74
2023/06/08 11:28:14;;;;;;;7.10;3.30;;;;;;;;;;6343216;22;20444;-75
2023/06/08 11:30:42;;;;;;;4.07;2.75;;;;;;;;;;6371058;22;20018;-76
2023/06/08 11:33:17;;;;;;;5.53;3.13;;;;;;;;;;6371160;22;20467;-76
2023/06/08 11:35:45;;;;;;;4.93;2.55;;;;;;;;;;6371059;22;20014;-77
2023/06/08 11:38:13;;;;;;;5.18;3.17;;;;;;;;;;6370986;22;20019;-76
2023/06/08 11:40:41;;;;;;;5.75;2.72;;;;;;;;;;6343092;22;20014;-77
2023/06/08 11:43:10;;;;;;;4.50;3.00;;;;;;;;;;6370828;22;20077;-74
2023/06/08 11:45:39;;;;;;;5.70;3.10;;;;;;;;;;6370775;22;20045;-75
2023/06/08 11:48:07;;;;;;;4.53;3.08;;;;;;;;;;6342703;22;20011;-75
2023/06/08 11:50:45;;;;;;;5.03;3.03;;;;;;;;;;6370549;22;20022;-74
2023/06/08 11:53:15;;;;;;;4.30;3.08;;;;;;;;;;6370589;22;20023;-74
2023/06/08 11:55:46;;;;;;;5.80;3.17;;;;;;;;;;6370653;22;20065;-75
2023/06/08 11:58:14;;;;;;;4.45;2.85;;;;;;;;;;6370628;22;20079;-75
2023/06/08 12:00:42;;;;;;;4.47;2.90;;;;;;;;;;6370202;22;20022;-75
2023/06/08 12:03:10;;;;;;;4.50;2.67;;;;;;;;;;6370636;22;20332;-76
2023/06/08 12:05:38;;;;;;;4.05;2.55;;;;;;;;;;6343092;22;20010;-74
2023/06/08 12:08:11;;;;;;;4.13;2.78;;;;;;;;;;6370296;22;20014;-76
2023/06/08 12:10:41;;;;;;;4.93;2.83;;;;;;;;;;6370536;22;20018;-75
2023/06/08 12:13:09;;;;;;;3.80;2.92;;;;;;;;;;6342815;22;20010;-74
2023/06/08 12:15:43;;;;;;;5.72;2.92;;;;;;;;;;6369886;22;20026;-75
2023/06/08 12:18:11;;;;;;;6.22;2.80;;;;;;;;;;6370385;22;20044;-74
2023/06/08 12:20:40;;;;;;;4.13;2.80;;;;;;;;;;6369984;22;20089;-75
2023/06/08 12:23:09;;;;;;;4.18;2.65;;;;;;;;;;6370082;22;20037;-73
2023/06/08 12:25:37;;;;;;;7.50;2.88;;;;;;;;;;6369875;22;20020;-79
2023/06/08 12:28:05;;;;;;;6.57;2.60;;;;;;;;;;6370535;22;20317;-74
2023/06/08 12:30:33;;;;;;;4.97;2.50;;;;;;;;;;6343377;22;20025;-76
2023/06/08 12:33:00;;;;;;;5.13;2.58;;;;;;;;;;6370249;22;20014;-79
2023/06/08 12:35:28;;;;;;;5.95;2.83;;;;;;;;;;6370130;22;20018;-75
2023/06/08 12:37:56;;;;;;;4.80;2.67;;;;;;;;;;6342659;22;20432;-74
2023/06/08 12:40:24;;;;;;;7.47;3.28;;;;;;;;;;6369710;22;20440;-76
2023/06/08 12:42:51;;;;;;;5.47;2.92;;;;;;;;;;6369981;22;20059;-75
2023/06/08 12:45:20;;;;;;;4.82;2.75;;;;;;;;;;6370143;22;20014;-80
2023/06/08 12:47:49;;;;;;;6.50;2.95;;;;;;;;;;6344520;22;20015;-82
2023/06/08 12:50:17;;;;;;;3.92;2.72;;;;;;;;;;6343919;22;20105;-81
2023/06/08 12:52:45;;;;;;;4.10;2.83;;;;;;;;;;6371326;22;20044;-80
2023/06/08 12:55:18;;;;;;;6.38;2.83;;;;;;;;;;6318892;22;20018;-76
2023/06/08 12:57:47;;;;;;;4.00;2.50;;;;;;;;;;6371308;22;20038;-79
2023/06/08 13:00:17;;;;;;;3.72;2.50;;;;;;;;;;6342548;22;20018;-80
2023/06/08 13:02:45;;;;;;;5.00;2.80;;;;;;;;;;6342033;22;20344;-80
2023/06/08 13:05:15;;;;;;;3.05;2.53;;;;;;;;;;6370350;22;20389;-76
2023/06/08 13:07:42;;;;;;;3.63;2.75;;;;;;;;;;6373021;22;20436;-76
2023/06/08 13:10:10;;;;;;;6.47;2.95;;;;;;;;;;6371501;22;20022;-77
2023/06/08 13:12:39;;;;;;;6.00;2.83;;;;;;;;;;6370910;22;20037;-79
2023/06/08 13:15:07;;;;;;;5.32;3.13;;;;;;;;;;6342836;22;20014;-76
2023/06/08 13:17:35;;;;;;;3.88;2.80;;;;;;;;;;6369902;22;20011;-79
2023/06/08 13:20:04;;;;;;;6.20;2.63;;;;;;;;;;6342616;22;20067;-77
2023/06/08 13:22:32;;;;;;;7.35;2.72;;;;;;;;;;6369814;22;20041;-80
2023/06/08 13:24:59;;;;;;;6.38;2.45;;;;;;;;;;6370348;22;20017;-76
2023/06/08 13:27:27;;;;;;;4.55;2.47;;;;;;;;;;6342403;22;20018;-77
2023/06/08 13:29:54;;;;;;;4.78;2.92;;;;;;;;;;6370413;22;20014;-76
2023/06/08 13:32:22;;;;;;;4.43;2.70;;;;;;;;;;6342317;22;20015;-78
2023/06/08 13:34:50;;;;;;;4.90;2.70;;;;;;;;;;6369499;22;20105;-77
2023/06/08 13:37:18;;;;;;;4.07;2.80;;;;;;;;;;6369718;22;20021;-77
2023/06/08 13:39:46;;;;;;;4.75;3.22;;;;;;;;;;6316223;22;20026;-74
2023/06/08 13:42:14;;;;;;;4.82;2.92;;;;;;;;;;6368997;22;20018;-80
2023/06/08 13:44:45;;;;;;;6.90;2.90;;;;;;;;;;6370702;22;20014;-79
2023/06/08 13:47:14;;;;;;;4.40;2.60;;;;;;;;;;6369853;22;20022;-76
2023/06/08 13:49:45;;;;;;;3.67;2.40;;;;;;;;;;6346384;22;20070;-78
2023/06/08 13:52:13;;;;;;;5.07;2.78;;;;;;;;;;6369215;22;20076;-75
2023/06/08 13:54:40;;;;;;;6.72;3.08;;;;;;;;;;6369998;22;20505;-75
2023/06/08 13:57:08;;;;;;;4.68;2.55;;;;;;;;;;6370164;22;20010;-79
2023/06/08 13:59:36;;;;;;;3.83;2.60;;;;;;;;;;6369313;22;20065;-77
2023/06/08 14:02:04;;;;;;;4.32;2.80;;;;;;;;;;6367606;22;20018;-75
2023/06/08 14:04:32;;;;;;;6.38;3.92;;;;;;;;;;6339918;22;20021;-79
2023/06/08 14:07:00;;;;;;;2.92;2.40;;;;;;;;;;6316072;22;20022;-75
2023/06/08 14:09:27;;;;;;;5.00;2.60;;;;;;;;;;6369654;22;20014;-79
2023/06/08 14:11:55;;;;;;;3.58;2.60;;;;;;;;;;6340400;22;20376;-76
2023/06/08 14:14:33;;;;;;;4.90;2.60;;;;;;;;;;6276338;22;20015;31
2023/06/08 14:17:02;;;;;;;7.40;3.80;;;;;;;;;;6242844;23;20012;-68
2023/06/08 14:19:29;;;;;;;4.78;3.10;;;;;;;;;;6242641;23;20020;-69
2023/06/08 14:21:57;;;;;;;4.20;2.17;;;;;;;;;;6219193;23;20018;-69
2023/06/08 14:24:27;;;;;;;3.60;2.80;;;;;;;;;;6247239;23;20016;-68
2023/06/08 14:26:54;;;;;;;3.95;2.67;;;;;;;;;;6247393;23;20082;-69
2023/06/08 14:29:22;;;;;;;6.45;2.50;;;;;;;;;;6247559;23;20027;-68
2023/06/08 14:31:49;;;;;;;6.30;2.83;;;;;;;;;;6247389;23;20449;-70
2023/06/08 14:34:19;;;;;;;5.65;2.42;;;;;;;;;;6247136;23;20681;-69
2023/06/08 14:36:47;;;;;;;4.43;2.35;;;;;;;;;;6246697;23;20020;-69
2023/06/08 14:39:14;;;;;;;5.72;2.63;;;;;;;;;;6247123;23;20018;-69
2023/06/08 14:41:42;;;;;;;5.35;2.78;;;;;;;;;;6247064;23;20016;-69
2023/06/08 14:44:10;;;;;;;6.43;2.92;;;;;;;;;;6246929;23;20094;-70
2023/06/08 14:46:37;;;;;;;3.63;2.88;;;;;;;;;;6219821;23;20044;-69
2023/06/08 14:49:05;;;;;;;7.82;2.72;;;;;;;;;;6247237;23;20417;-69
2023/06/08 14:51:32;;;;;;;5.55;2.38;;;;;;;;;;6246849;23;20091;-69
2023/06/08 14:54:04;;;;;;;3.45;2.45;;;;;;;;;;6220385;23;20020;-68
2023/06/08 14:56:34;;;;;;;5.07;2.70;;;;;;;;;;6220737;23;20043;-69